createdAt,value
2023-04-28T00:02:22.388Z,14.00
2023-04-28T00:04:52.974Z,14.00
2023-04-28T00:07:23.611Z,13.90
2023-04-28T00:09:54.072Z,13.90
2023-04-28T00:12:27.156Z,13.90
2023-04-28T00:14:57.562Z,13.80
2023-04-28T00:17:27.973Z,13.80
2023-04-28T00:19:59.090Z,13.80
2023-04-28T00:22:29.483Z,13.80
2023-04-28T00:24:59.942Z,13.70
2023-04-28T00:27:33.062Z,13.70
2023-04-28T00:30:03.737Z,13.60
2023-04-28T00:32:34.149Z,13.70
2023-04-28T00:35:11.781Z,13.50
2023-04-28T00:37:42.554Z,13.60
2023-04-28T00:40:14.025Z,13.60
2023-04-28T00:42:50.736Z,13.60
2023-04-28T00:45:21.376Z,13.60
2023-04-28T00:47:51.922Z,13.60
2023-04-28T00:50:22.492Z,13.60
2023-04-28T00:52:54.393Z,13.60
2023-04-28T00:55:25.468Z,13.60
2023-04-28T00:57:59.340Z,13.60
2023-04-28T01:00:29.769Z,13.50
2023-04-28T01:03:01.383Z,13.50
2023-04-28T01:05:37.974Z,13.60
2023-04-28T01:08:08.585Z,13.50
2023-04-28T01:10:39.013Z,13.50
2023-04-28T01:13:19.214Z,13.50
2023-04-28T01:15:50.102Z,13.40
2023-04-28T01:18:20.760Z,13.40
2023-04-28T01:20:51.350Z,13.40
2023-04-28T01:23:22.009Z,13.40
2023-04-28T01:25:56.818Z,13.50
2023-04-28T01:28:27.168Z,13.50
2023-04-28T01:30:57.580Z,13.50
2023-04-28T01:33:28.056Z,13.40
2023-04-28T01:36:01.210Z,13.40
2023-04-28T01:38:31.532Z,13.30
2023-04-28T01:41:05.063Z,13.30
2023-04-28T01:43:35.413Z,13.30
2023-04-28T01:46:05.861Z,13.30
2023-04-28T01:48:36.477Z,13.30
2023-04-28T01:51:07.314Z,13.20
2023-04-28T01:53:37.651Z,13.20
2023-04-28T01:56:10.837Z,13.00
2023-04-28T01:58:42.048Z,13.00
2023-04-28T02:01:13.280Z,13.00
2023-04-28T02:03:44.669Z,13.00
2023-04-28T02:06:15.885Z,13.00
2023-04-28T02:08:46.293Z,13.10
2023-04-28T02:11:19.380Z,13.10
2023-04-28T02:13:51.128Z,13.10
2023-04-28T02:16:21.574Z,13.00
2023-04-28T02:18:54.057Z,13.10
2023-04-28T02:21:24.474Z,13.00
2023-04-28T02:23:54.888Z,12.90
2023-04-28T02:26:28.161Z,12.90
2023-04-28T02:28:58.531Z,12.90
2023-04-28T02:31:29.001Z,12.80
2023-04-28T02:33:59.403Z,12.70
2023-04-28T02:36:30.416Z,12.70
2023-04-28T02:39:00.817Z,12.60
2023-04-28T02:41:34.947Z,12.60
2023-04-28T02:44:05.688Z,12.70
2023-04-28T02:46:36.301Z,12.80
2023-04-28T02:49:07.938Z,12.80
2023-04-28T02:51:38.290Z,12.90
2023-04-28T02:54:09.136Z,12.90
2023-04-28T02:56:42.517Z,12.90
2023-04-28T02:59:12.896Z,12.90
2023-04-28T03:01:43.362Z,12.80
2023-04-28T03:04:13.953Z,12.80
2023-04-28T03:06:44.900Z,12.80
2023-04-28T03:09:15.398Z,12.80
2023-04-28T03:11:48.429Z,12.70
2023-04-28T03:14:18.792Z,12.80
2023-04-28T03:16:49.364Z,12.80
2023-04-28T03:19:19.983Z,12.80
2023-04-28T03:21:51.168Z,12.80
2023-04-28T03:24:21.555Z,12.80
2023-04-28T03:26:57.041Z,12.90
2023-04-28T03:29:27.745Z,12.90
2023-04-28T03:31:58.331Z,12.80
2023-04-28T03:34:28.851Z,12.70
2023-04-28T03:36:59.584Z,12.80
2023-04-28T03:39:33.765Z,12.90
2023-04-28T03:42:07.154Z,12.80
2023-04-28T03:44:40.227Z,12.80
2023-04-28T03:47:11.097Z,12.80
2023-04-28T03:49:42.444Z,12.80
2023-04-28T03:52:13.060Z,12.90
2023-04-28T03:54:44.210Z,12.90
2023-04-28T03:57:17.187Z,12.90
2023-04-28T03:59:47.623Z,12.90
2023-04-28T04:02:18.047Z,12.80
2023-04-28T04:04:49.242Z,12.90
2023-04-28T04:07:19.902Z,12.90
2023-04-28T04:09:50.315Z,12.90
2023-04-28T04:12:23.429Z,12.80
2023-04-28T04:14:53.973Z,12.80
2023-04-28T04:17:24.917Z,12.80
2023-04-28T04:19:55.453Z,12.80
2023-04-28T04:22:25.934Z,12.80
2023-04-28T04:24:56.432Z,12.80
2023-04-28T04:27:29.556Z,12.80
2023-04-28T04:30:00.035Z,12.80
2023-04-28T04:32:30.682Z,12.80
2023-04-28T04:35:01.202Z,12.80
2023-04-28T04:37:31.602Z,12.70
2023-04-28T04:40:05.183Z,12.60
2023-04-28T04:42:45.219Z,12.60
2023-04-28T04:45:20.390Z,12.70
2023-04-28T04:47:52.536Z,12.70
2023-04-28T04:50:23.052Z,12.70
2023-04-28T04:52:54.785Z,12.80
2023-04-28T04:55:26.804Z,12.70
2023-04-28T04:57:59.843Z,12.80
2023-04-28T05:00:33.875Z,12.80
2023-04-28T05:03:06.637Z,12.80
2023-04-28T05:05:37.184Z,12.80
2023-04-28T05:08:22.477Z,12.80
2023-04-28T05:10:52.852Z,12.80
2023-04-28T05:13:26.288Z,12.80
2023-04-28T05:16:02.466Z,12.80
2023-04-28T05:18:59.138Z,12.80
2023-04-28T05:21:29.585Z,12.80
2023-04-28T05:24:00.335Z,12.80
2023-04-28T05:26:30.963Z,12.80
2023-04-28T05:29:09.772Z,12.80
2023-04-28T05:31:40.481Z,12.80
2023-04-28T05:34:11.317Z,12.90
2023-04-28T05:36:42.232Z,12.90
2023-04-28T05:39:14.703Z,12.90
2023-04-28T05:41:46.262Z,12.90
2023-04-28T05:44:19.266Z,12.80
2023-04-28T05:46:50.175Z,12.90
2023-04-28T05:49:25.650Z,12.90
2023-04-28T05:51:56.129Z,12.90
2023-04-28T05:54:27.297Z,12.80
2023-04-28T05:57:01.506Z,12.90
2023-04-28T05:59:35.857Z,12.80
2023-04-28T06:02:06.421Z,12.90
2023-04-28T06:04:37.127Z,12.90
2023-04-28T06:07:07.737Z,12.90
2023-04-28T06:09:39.238Z,13.00
2023-04-28T06:12:10.712Z,13.00
2023-04-28T06:14:43.721Z,13.00
2023-04-28T06:17:14.193Z,13.00
2023-04-28T06:19:44.596Z,13.00
2023-04-28T06:22:14.989Z,13.10
2023-04-28T06:24:45.556Z,13.10
2023-04-28T06:27:18.209Z,13.10
2023-04-28T06:29:51.787Z,13.10
2023-04-28T06:32:22.341Z,13.20
2023-04-28T06:34:52.745Z,13.20
2023-04-28T06:37:23.205Z,13.20
2023-04-28T06:39:53.572Z,13.30
2023-04-28T06:42:24.030Z,13.30
2023-04-28T06:45:02.898Z,13.40
2023-04-28T06:47:33.321Z,13.40
2023-04-28T06:50:04.568Z,13.50
2023-04-28T06:52:39.870Z,13.50
2023-04-28T06:55:12.404Z,13.60
2023-04-28T06:57:42.969Z,13.60
2023-04-28T07:00:20.365Z,13.70
2023-04-28T07:02:50.923Z,13.70
2023-04-28T07:05:21.632Z,13.80
2023-04-28T07:07:52.152Z,13.90
2023-04-28T07:10:22.828Z,13.90
2023-04-28T07:12:54.293Z,13.90
2023-04-28T07:15:27.708Z,14.00
2023-04-28T07:17:58.416Z,14.00
2023-04-28T07:20:29.033Z,14.00
2023-04-28T07:22:59.924Z,14.20
2023-04-28T07:25:30.282Z,14.10
2023-04-28T07:28:00.729Z,14.10
2023-04-28T07:30:33.772Z,14.20
2023-04-28T07:33:05.621Z,14.20
2023-04-28T07:35:36.725Z,14.20
2023-04-28T07:38:07.181Z,14.20
2023-04-28T07:40:37.932Z,14.20
2023-04-28T07:43:08.910Z,14.20
2023-04-28T07:45:45.996Z,14.20
2023-04-28T07:48:16.663Z,14.30
2023-04-28T07:50:47.209Z,14.30
2023-04-28T07:53:18.017Z,14.30
2023-04-28T07:55:48.866Z,14.30
2023-04-28T07:58:19.337Z,14.30
2023-04-28T08:00:52.625Z,14.40
2023-04-28T08:03:23.542Z,14.50
2023-04-28T08:05:54.662Z,14.60
2023-04-28T08:08:25.341Z,14.70
2023-04-28T08:10:55.862Z,14.80
2023-04-28T08:13:29.387Z,14.90
2023-04-28T08:16:03.398Z,14.90
2023-04-28T08:18:34.140Z,15.10
2023-04-28T08:21:04.613Z,15.10
2023-04-28T08:23:34.983Z,15.10
2023-04-28T08:26:06.035Z,15.10
2023-04-28T08:28:37.011Z,15.10
2023-04-28T08:31:10.045Z,15.10
2023-04-28T08:33:44.658Z,15.20
2023-04-28T08:36:15.316Z,15.10
2023-04-28T08:38:47.549Z,15.10
2023-04-28T08:41:19.940Z,15.10
2023-04-28T08:43:51.404Z,15.20
2023-04-28T08:46:25.485Z,15.20
2023-04-28T08:49:00.567Z,15.20
2023-04-28T08:51:39.067Z,15.20
2023-04-28T08:54:25.421Z,15.20
2023-04-28T08:56:57.464Z,15.20
2023-04-28T08:59:27.991Z,15.30
2023-04-28T09:02:01.830Z,15.30
2023-04-28T09:04:32.549Z,15.40
2023-04-28T09:07:03.345Z,15.40
2023-04-28T09:09:37.001Z,15.50
2023-04-28T09:12:09.385Z,15.50
2023-04-28T09:14:41.735Z,15.60
2023-04-28T09:17:17.915Z,15.50
2023-04-28T09:19:48.286Z,15.60
2023-04-28T09:22:26.756Z,15.70
2023-04-28T09:24:58.181Z,15.70
2023-04-28T09:27:31.031Z,15.70
2023-04-28T09:30:01.604Z,15.70
2023-04-28T09:32:34.958Z,15.70
2023-04-28T09:35:07.713Z,15.70
2023-04-28T09:37:38.531Z,15.80
2023-04-28T09:40:12.694Z,15.80
2023-04-28T09:42:44.564Z,15.90
2023-04-28T09:45:16.911Z,16.00
2023-04-28T09:47:50.739Z,16.10
2023-04-28T09:50:21.308Z,16.20
2023-04-28T09:52:59.995Z,16.30
2023-04-28T09:55:33.266Z,16.30
2023-04-28T09:58:09.833Z,16.40
2023-04-28T10:00:42.225Z,16.40
2023-04-28T10:03:18.164Z,16.40
2023-04-28T10:05:50.286Z,16.40
2023-04-28T10:08:21.769Z,16.50
2023-04-28T10:10:53.427Z,16.60
2023-04-28T10:13:24.360Z,16.60
2023-04-28T10:15:55.821Z,16.60
2023-04-28T10:18:29.185Z,16.70
2023-04-28T10:21:04.023Z,16.80
2023-04-28T10:24:02.628Z,16.70
2023-04-28T10:27:05.626Z,16.70
2023-04-28T10:29:37.871Z,16.70
2023-04-28T10:32:26.530Z,16.80
2023-04-28T10:35:38.581Z,17.00
2023-04-28T10:38:13.820Z,17.00
2023-04-28T10:40:45.729Z,17.20
2023-04-28T10:43:17.034Z,17.10
2023-04-28T10:46:05.228Z,17.10
2023-04-28T10:49:03.017Z,17.20
2023-04-28T10:51:35.000Z,17.20
2023-04-28T10:54:34.799Z,17.30
2023-04-28T10:57:26.897Z,17.20
2023-04-28T11:00:32.600Z,17.20
2023-04-28T11:03:03.120Z,17.10
2023-04-28T11:05:35.267Z,17.20
2023-04-28T11:08:36.224Z,17.20
2023-04-28T11:11:20.011Z,17.20
2023-04-28T11:13:50.972Z,17.10
2023-04-28T11:16:23.934Z,17.10
2023-04-28T11:19:05.074Z,17.20
2023-04-28T11:21:36.710Z,17.20
2023-04-28T11:24:13.233Z,17.20
2023-04-28T11:26:47.154Z,17.40
2023-04-28T11:29:17.921Z,17.40
2023-04-28T11:31:54.041Z,17.30
2023-04-28T11:34:25.500Z,17.30
2023-04-28T11:36:56.072Z,17.30
2023-04-28T11:39:33.660Z,17.40
2023-04-28T11:42:13.773Z,17.30
2023-04-28T11:44:44.320Z,17.20
2023-04-28T11:47:14.965Z,17.10
2023-04-28T11:49:47.136Z,17.10
2023-04-28T11:52:17.650Z,17.10
2023-04-28T11:54:48.399Z,17.00
2023-04-28T11:57:25.733Z,16.90
2023-04-28T11:59:56.135Z,16.90
2023-04-28T12:02:31.422Z,16.90
2023-04-28T12:05:09.916Z,16.90
2023-04-28T12:07:45.944Z,16.80
2023-04-28T12:10:19.119Z,16.70
2023-04-28T12:12:53.355Z,16.70
2023-04-28T12:15:25.655Z,16.70
2023-04-28T12:17:56.208Z,16.70
2023-04-28T12:20:39.848Z,16.70
2023-04-28T12:23:10.488Z,16.70
2023-04-28T12:25:48.280Z,16.70
2023-04-28T12:28:21.442Z,16.60
2023-04-28T12:30:51.889Z,16.60
2023-04-28T12:33:29.990Z,16.60
2023-04-28T12:36:01.761Z,16.60
2023-04-28T12:38:32.704Z,16.50
2023-04-28T12:41:03.316Z,16.50
2023-04-28T12:43:36.460Z,16.60
2023-04-28T12:46:08.724Z,16.70
2023-04-28T12:48:39.160Z,16.70
2023-04-28T12:51:09.610Z,16.70
2023-04-28T12:53:40.034Z,16.60
2023-04-28T12:56:10.564Z,16.70
2023-04-28T12:58:43.587Z,16.70
2023-04-28T13:01:16.211Z,16.60
2023-04-28T13:03:49.004Z,16.60
2023-04-28T13:06:20.251Z,16.60
2023-04-28T13:08:50.692Z,16.60
2023-04-28T13:11:23.128Z,16.60
2023-04-28T13:13:57.339Z,16.50
2023-04-28T13:16:31.938Z,16.50
2023-04-28T13:19:02.413Z,16.40
2023-04-28T13:21:32.813Z,16.50
2023-04-28T13:24:03.909Z,16.50
2023-04-28T13:26:34.299Z,16.60
2023-04-28T13:29:08.620Z,16.50
2023-04-28T13:31:39.080Z,16.50
2023-04-28T13:34:16.161Z,16.50
2023-04-28T13:36:48.363Z,16.50
2023-04-28T13:39:20.479Z,16.60
2023-04-28T13:41:51.122Z,16.60
2023-04-28T13:44:24.269Z,16.50
2023-04-28T13:46:55.691Z,16.50
2023-04-28T13:49:26.285Z,16.50
2023-04-28T13:51:56.661Z,16.40
2023-04-28T13:54:27.046Z,16.50
2023-04-28T13:56:57.394Z,16.50
2023-04-28T13:59:30.580Z,16.50
2023-04-28T14:02:01.098Z,16.60
2023-04-28T14:04:31.767Z,16.50
2023-04-28T14:07:02.484Z,16.50
2023-04-28T14:09:33.004Z,16.50
2023-04-28T14:12:03.431Z,16.50
2023-04-28T14:14:38.954Z,16.40
2023-04-28T14:17:10.709Z,16.40
2023-04-28T14:19:41.234Z,16.40
2023-04-28T14:22:11.618Z,16.40
2023-04-28T14:24:42.389Z,16.40
2023-04-28T14:27:12.954Z,16.40
2023-04-28T14:29:48.496Z,16.50
2023-04-28T14:32:21.474Z,16.60
2023-04-28T14:34:53.127Z,16.50
2023-04-28T14:37:23.589Z,16.50
2023-04-28T14:39:54.143Z,16.50
2023-04-28T14:42:24.527Z,16.50
2023-04-28T14:44:57.634Z,16.60
2023-04-28T14:47:28.197Z,16.60
2023-04-28T14:49:58.798Z,16.50
2023-04-28T14:52:30.566Z,16.60
2023-04-28T14:55:03.352Z,16.60
2023-04-28T14:57:34.736Z,16.60
2023-04-28T15:00:10.181Z,16.50
2023-04-28T15:02:40.811Z,16.60
2023-04-28T15:05:12.835Z,16.60
2023-04-28T15:07:43.668Z,16.60
2023-04-28T15:10:14.540Z,16.60
2023-04-28T15:12:45.041Z,16.60
2023-04-28T15:15:18.351Z,16.60
2023-04-28T15:17:48.863Z,16.70
2023-04-28T15:20:19.352Z,16.80
2023-04-28T15:22:49.755Z,16.70
2023-04-28T15:25:20.156Z,16.80
2023-04-28T15:27:50.689Z,16.80
2023-04-28T15:30:23.839Z,16.80
2023-04-28T15:32:54.243Z,16.90
2023-04-28T15:35:25.109Z,16.90
2023-04-28T15:37:56.095Z,16.90
2023-04-28T15:40:26.557Z,16.90
2023-04-28T15:42:56.875Z,16.80
2023-04-28T15:45:30.288Z,16.80
2023-04-28T15:48:01.017Z,16.90
2023-04-28T15:50:31.686Z,16.80
2023-04-28T15:53:02.452Z,16.70
2023-04-28T15:55:32.965Z,16.70
2023-04-28T15:58:04.164Z,16.80
2023-04-28T16:00:37.564Z,16.80
2023-04-28T16:03:08.155Z,16.80
2023-04-28T16:05:38.679Z,16.80
2023-04-28T16:08:09.336Z,16.80
2023-04-28T16:10:41.528Z,16.80
2023-04-28T16:13:12.562Z,16.80
2023-04-28T16:15:46.230Z,16.80
2023-04-28T16:18:16.774Z,16.70
2023-04-28T16:20:47.508Z,16.60
2023-04-28T16:23:18.958Z,16.60
2023-04-28T16:25:51.082Z,16.60
2023-04-28T16:28:21.497Z,16.60
2023-04-28T16:30:54.631Z,16.60
2023-04-28T16:33:25.086Z,16.60
2023-04-28T16:35:59.770Z,16.60
2023-04-28T16:38:30.214Z,16.60
2023-04-28T16:41:00.633Z,16.60
2023-04-28T16:43:32.350Z,16.50
2023-04-28T16:46:05.716Z,16.40
2023-04-28T16:48:36.297Z,16.50
2023-04-28T16:51:08.558Z,16.40
2023-04-28T16:53:39.241Z,16.30
2023-04-28T16:56:10.929Z,16.30
2023-04-28T16:58:41.856Z,16.40
2023-04-28T17:01:14.961Z,16.30
2023-04-28T17:03:45.586Z,16.40
2023-04-28T17:06:16.449Z,16.30
2023-04-28T17:08:46.822Z,16.30
2023-04-28T17:11:20.600Z,16.30
2023-04-28T17:13:51.023Z,16.30
2023-04-28T17:16:24.148Z,16.30
2023-04-28T17:18:55.426Z,16.30
2023-04-28T17:21:27.412Z,16.20
2023-04-28T17:23:58.340Z,16.30
2023-04-28T17:26:28.889Z,16.30
2023-04-28T17:29:02.602Z,16.20
2023-04-28T17:31:38.827Z,16.20
2023-04-28T17:34:09.466Z,16.10
2023-04-28T17:36:40.355Z,16.20
2023-04-28T17:39:10.935Z,16.20
2023-04-28T17:41:41.417Z,16.20
2023-04-28T17:44:12.026Z,16.20
2023-04-28T17:46:45.081Z,16.20
2023-04-28T17:49:15.511Z,16.20
2023-04-28T17:51:45.897Z,16.10
2023-04-28T17:54:16.253Z,16.00
2023-04-28T17:56:46.789Z,15.90
2023-04-28T17:59:17.425Z,15.90
2023-04-28T18:01:50.589Z,15.90
2023-04-28T18:04:21.156Z,15.90
2023-04-28T18:06:51.536Z,15.90
2023-04-28T18:09:21.897Z,15.90
2023-04-28T18:11:53.740Z,15.90
2023-04-28T18:14:24.574Z,16.00
2023-04-28T18:16:57.601Z,15.90
2023-04-28T18:19:30.581Z,15.80
2023-04-28T18:22:01.183Z,15.80
2023-04-28T18:24:31.521Z,15.80
2023-04-28T18:27:02.462Z,15.80
2023-04-28T18:29:33.001Z,15.70
2023-04-28T18:32:06.114Z,15.80
2023-04-28T18:34:36.619Z,15.70
2023-04-28T18:37:07.047Z,15.70
2023-04-28T18:39:37.487Z,15.70
2023-04-28T18:42:07.895Z,15.50
2023-04-28T18:44:38.349Z,15.60
2023-04-28T18:47:11.340Z,15.60
2023-04-28T18:49:42.124Z,15.60
2023-04-28T18:52:13.089Z,15.50
2023-04-28T18:54:43.541Z,15.50
2023-04-28T18:57:14.567Z,15.50
2023-04-28T18:59:44.933Z,15.40
2023-04-28T19:02:18.041Z,15.50
2023-04-28T19:04:48.867Z,15.40
2023-04-28T19:07:19.555Z,15.40
2023-04-28T19:09:51.324Z,15.40
2023-04-28T19:12:22.151Z,15.40
2023-04-28T19:14:52.640Z,15.40
2023-04-28T19:17:26.036Z,15.40
2023-04-28T19:19:59.080Z,15.30
2023-04-28T19:22:33.487Z,15.40
2023-04-28T19:25:04.532Z,15.40
2023-04-28T19:27:36.446Z,15.40
2023-04-28T19:30:08.795Z,15.40
2023-04-28T19:32:42.357Z,15.40
2023-04-28T19:35:13.452Z,15.30
2023-04-28T19:37:44.342Z,15.40
2023-04-28T19:40:17.010Z,15.40
2023-04-28T19:42:47.485Z,15.40
2023-04-28T19:45:17.826Z,15.40
2023-04-28T19:47:50.860Z,15.30
2023-04-28T19:50:21.762Z,15.20
2023-04-28T19:52:52.320Z,15.30
2023-04-28T19:55:23.558Z,15.30
2023-04-28T19:57:57.496Z,15.20
2023-04-28T20:00:29.858Z,15.10
2023-04-28T20:03:04.901Z,15.00
2023-04-28T20:05:35.597Z,15.00
2023-04-28T20:08:05.968Z,14.90
2023-04-28T20:10:36.447Z,14.90
2023-04-28T20:13:07.343Z,15.00
2023-04-28T20:15:37.914Z,15.00
2023-04-28T20:18:10.945Z,15.00
2023-04-28T20:20:41.353Z,15.00
2023-04-28T20:23:11.821Z,15.00
2023-04-28T20:25:42.294Z,15.00
2023-04-28T20:28:12.785Z,15.00
2023-04-28T20:30:43.931Z,14.90
2023-04-28T20:33:17.201Z,15.00
2023-04-28T20:35:47.558Z,14.90
2023-04-28T20:38:19.959Z,14.80
2023-04-28T20:40:50.317Z,14.90
2023-04-28T20:43:21.195Z,14.90
2023-04-28T20:45:52.346Z,14.90
2023-04-28T20:48:25.394Z,14.90
2023-04-28T20:50:55.868Z,14.70
2023-04-28T20:53:26.277Z,14.80
2023-04-28T20:55:56.727Z,14.70
2023-04-28T20:58:28.203Z,14.60
2023-04-28T21:00:58.632Z,14.60
2023-04-28T21:03:32.965Z,14.60
2023-04-28T21:06:03.979Z,14.60
2023-04-28T21:08:34.331Z,14.60
2023-04-28T21:11:04.951Z,14.60
2023-04-28T21:13:35.327Z,14.60
2023-04-28T21:16:05.722Z,14.50
2023-04-28T21:18:38.686Z,14.50
2023-04-28T21:21:09.062Z,14.50
2023-04-28T21:23:39.712Z,14.40
2023-04-28T21:26:10.610Z,14.50
2023-04-28T21:28:41.877Z,14.40
2023-04-28T21:31:12.298Z,14.50
2023-04-28T21:33:45.263Z,14.50
2023-04-28T21:36:15.953Z,14.40
2023-04-28T21:38:46.302Z,14.40
2023-04-28T21:41:16.767Z,14.40
2023-04-28T21:43:47.157Z,14.30
2023-04-28T21:46:19.335Z,14.30
2023-04-28T21:48:52.455Z,14.30
2023-04-28T21:51:22.885Z,14.30
2023-04-28T21:53:53.443Z,14.30
2023-04-28T21:56:23.859Z,14.20
2023-04-28T21:58:54.185Z,14.20
2023-04-28T22:01:25.409Z,14.20
2023-04-28T22:03:59.371Z,14.20
2023-04-28T22:06:30.259Z,14.10
2023-04-28T22:09:01.635Z,14.20
2023-04-28T22:11:32.544Z,14.20
2023-04-28T22:14:02.903Z,14.20
2023-04-28T22:16:33.317Z,14.20
2023-04-28T22:19:06.702Z,14.20
2023-04-28T22:21:37.062Z,14.20
2023-04-28T22:24:08.584Z,14.20
2023-04-28T22:26:39.049Z,14.10
2023-04-28T22:29:09.587Z,14.10
2023-04-28T22:31:40.007Z,14.10
2023-04-28T22:34:13.083Z,14.10
2023-04-28T22:36:43.452Z,14.00
2023-04-28T22:39:13.823Z,14.00
2023-04-28T22:41:44.349Z,14.10
2023-04-28T22:44:14.853Z,14.10
2023-04-28T22:46:45.222Z,14.10
2023-04-28T22:49:20.547Z,13.90
2023-04-28T22:51:50.908Z,14.00
2023-04-28T22:54:21.334Z,13.90
2023-04-28T22:56:53.393Z,14.00
2023-04-28T22:59:23.986Z,13.80
2023-04-28T23:01:54.968Z,13.90
2023-04-28T23:04:28.170Z,13.80
2023-04-28T23:06:58.695Z,13.90
2023-04-28T23:09:29.037Z,13.80
2023-04-28T23:11:59.619Z,13.90
2023-04-28T23:14:29.969Z,13.90
2023-04-28T23:17:00.369Z,13.90
2023-04-28T23:19:33.361Z,13.80
2023-04-28T23:22:03.722Z,13.80
2023-04-28T23:24:34.038Z,13.70
2023-04-28T23:27:04.453Z,13.80
2023-04-28T23:29:35.452Z,13.80
2023-04-28T23:32:06.068Z,13.60
2023-04-28T23:34:41.967Z,13.80
2023-04-28T23:37:12.466Z,13.70
2023-04-28T23:39:42.829Z,13.60
2023-04-28T23:42:13.269Z,13.60
2023-04-28T23:44:43.685Z,13.60
2023-04-28T23:47:14.127Z,13.60
2023-04-28T23:49:47.176Z,13.60
2023-04-28T23:52:17.759Z,13.50
2023-04-28T23:54:48.324Z,13.50
2023-04-28T23:57:19.328Z,13.20
2023-04-28T23:59:49.905Z,13.30
